ENKB/KSU METAR and TAF weather

Enter ICAO airport designator
Station Type Date Time Source
ENKB METAR 2019/02/21 11:20 UTC NOAA

ENKB 211120Z 08004KT 030V100 6000 -DZ FEW005 SCT010 BKN015 05/03 Q1012 RMK WIND 745FT 18006KT


Station Type Date Time Source
ENKB Decoded METAR 2019/02/21 11:20 UTC NOAA

Kristiansund / Kvernberget, Norway (ENKB) 63-07N 007-50E 62M
Feb 21, 2019 - 06:20 AM EST / 2019.02.21 1120 UTC
Wind: from the E (080 degrees) at 5 MPH (4 KT) (direction variable):0
Visibility: 3 mile(s):0
Sky conditions: mostly cloudy
Weather: light drizzle
Temperature: 41 F (5 C)
Dew Point: 37 F (3 C)
Relative Humidity: 86%
Pressure (altimeter): 29.88 in. Hg (1012 hPa)
ob: ENKB 211120Z 08004KT 030V100 6000 -DZ FEW005 SCT010 BKN015 05/03 Q1012 RMK WIND 745FT 18006KT
cycle: 11

Station Type Date Time Source
ENKB TAF 2010/02/05 07:50 UTC NOAA

METAR ENKB 050750Z 15011KT 110V200 9999 SCT055 BKN070 03/M05 Q1007


Example: see airport list